createdAt,value
2018-07-20T00:00:09.236Z,955.29
2018-07-20T00:01:09.228Z,955.26
2018-07-20T00:02:09.223Z,955.28
2018-07-20T00:03:09.218Z,955.28
2018-07-20T00:04:09.214Z,955.26
2018-07-20T00:05:09.202Z,955.26
2018-07-20T00:06:09.197Z,955.25
2018-07-20T00:07:09.189Z,955.25
2018-07-20T00:08:09.201Z,955.28
2018-07-20T00:09:09.176Z,955.27
2018-07-20T00:10:09.170Z,955.25
2018-07-20T00:11:09.165Z,955.27
2018-07-20T00:12:09.156Z,955.28
2018-07-20T00:13:09.150Z,955.3
2018-07-20T00:14:09.143Z,955.29
2018-07-20T00:15:09.138Z,955.27
2018-07-20T00:16:09.134Z,955.25
2018-07-20T00:17:09.131Z,955.25
2018-07-20T00:18:09.117Z,955.27
2018-07-20T00:19:09.109Z,955.25
2018-07-20T00:20:09.108Z,955.23
2018-07-20T00:21:09.098Z,955.23
2018-07-20T00:22:09.093Z,955.21
2018-07-20T00:23:09.084Z,955.19
2018-07-20T00:24:09.078Z,955.18
2018-07-20T00:25:09.071Z,955.17
2018-07-20T00:26:09.071Z,955.2
2018-07-20T00:27:09.060Z,955.2
2018-07-20T00:28:09.053Z,955.18
2018-07-20T00:29:09.045Z,955.17
2018-07-20T00:30:09.039Z,955.13
2018-07-20T00:31:09.035Z,955.09
2018-07-20T00:32:09.025Z,955.14
2018-07-20T00:33:09.019Z,955.1
2018-07-20T00:34:09.011Z,955.04
2018-07-20T00:35:09.006Z,955.08
2018-07-20T00:36:08.999Z,955.05
2018-07-20T00:37:08.994Z,955.07
2018-07-20T00:38:08.989Z,955.03
2018-07-20T00:39:08.980Z,955.03
2018-07-20T00:40:08.972Z,955.03
2018-07-20T00:41:08.966Z,955.03
2018-07-20T00:42:08.958Z,955.01
2018-07-20T00:43:08.950Z,955.02
2018-07-20T00:44:08.945Z,955.01
2018-07-20T00:45:08.937Z,955.02
2018-07-20T00:46:08.930Z,954.97
2018-07-20T00:47:08.925Z,954.96
2018-07-20T00:48:08.917Z,954.98
2018-07-20T00:49:08.915Z,954.97
2018-07-20T00:50:08.903Z,954.95
2018-07-20T00:51:08.896Z,954.92
2018-07-20T00:52:08.889Z,954.91
2018-07-20T00:53:08.891Z,954.93
2018-07-20T00:54:08.876Z,954.98
2018-07-20T00:55:08.870Z,954.9
2018-07-20T00:56:08.863Z,954.94
2018-07-20T00:57:08.855Z,954.99
2018-07-20T00:58:08.849Z,954.88
2018-07-20T00:59:08.841Z,954.9
2018-07-20T01:00:08.835Z,954.89
2018-07-20T01:01:08.829Z,954.86
2018-07-20T01:02:08.821Z,954.89
2018-07-20T01:03:08.813Z,954.87
2018-07-20T01:04:08.808Z,954.9
2018-07-20T01:05:08.805Z,954.91
2018-07-20T01:06:08.794Z,954.91
2018-07-20T01:07:08.785Z,954.93
2018-07-20T01:08:08.782Z,954.94
2018-07-20T01:09:08.774Z,954.94
2018-07-20T01:10:08.765Z,954.95
2018-07-20T01:11:08.760Z,954.93
2018-07-20T01:12:08.752Z,954.92
2018-07-20T01:13:08.745Z,954.92
2018-07-20T01:14:08.737Z,954.88
2018-07-20T01:15:08.731Z,954.93
2018-07-20T01:16:08.724Z,954.86
2018-07-20T01:17:08.718Z,954.91
2018-07-20T01:18:08.710Z,954.9
2018-07-20T01:19:08.703Z,954.92
2018-07-20T01:20:08.696Z,954.91
2018-07-20T01:21:08.692Z,954.92
2018-07-20T01:22:08.682Z,954.89
2018-07-20T01:23:08.680Z,954.89
2018-07-20T01:24:08.670Z,954.89
2018-07-20T01:25:08.660Z,954.87
2018-07-20T01:26:08.654Z,954.83
2018-07-20T01:27:08.647Z,954.86
2018-07-20T01:28:08.640Z,954.84
2018-07-20T01:29:08.635Z,954.83
2018-07-20T01:30:08.626Z,954.88
2018-07-20T01:31:08.642Z,954.89
2018-07-20T01:32:08.609Z,954.91
2018-07-20T01:33:08.603Z,954.96
2018-07-20T01:34:08.597Z,954.97
2018-07-20T01:35:08.590Z,954.97
2018-07-20T01:36:08.582Z,954.99
2018-07-20T01:37:08.575Z,955.02
2018-07-20T01:38:08.567Z,955.05
2018-07-20T01:39:08.561Z,955
2018-07-20T01:40:08.553Z,955.04
2018-07-20T01:41:08.551Z,955.02
2018-07-20T01:42:08.551Z,954.99
2018-07-20T01:43:08.532Z,954.99
2018-07-20T01:44:08.527Z,955.05
2018-07-20T01:45:08.518Z,954.99
2018-07-20T01:46:08.511Z,955.02
2018-07-20T01:47:08.502Z,955
2018-07-20T01:48:08.495Z,955.02
2018-07-20T01:49:08.488Z,955
2018-07-20T01:50:08.482Z,954.98
2018-07-20T01:51:08.475Z,954.98
2018-07-20T01:52:08.467Z,954.95
2018-07-20T01:53:08.459Z,954.96
2018-07-20T01:54:08.452Z,954.97
2018-07-20T01:55:08.445Z,954.96
2018-07-20T01:56:08.438Z,954.96
2018-07-20T01:57:08.435Z,954.9
2018-07-20T01:58:08.424Z,954.89
2018-07-20T01:59:08.416Z,954.92
2018-07-20T02:00:08.409Z,954.89
2018-07-20T02:01:08.402Z,954.91
2018-07-20T02:02:08.400Z,954.92
2018-07-20T02:03:08.388Z,954.92
2018-07-20T02:04:08.382Z,954.88
2018-07-20T02:05:08.373Z,954.95
2018-07-20T02:06:08.367Z,954.92
2018-07-20T02:07:08.364Z,954.9
2018-07-20T02:08:08.353Z,954.89
2018-07-20T02:09:08.349Z,954.91
2018-07-20T02:10:08.340Z,954.9
2018-07-20T02:11:08.331Z,954.88
2018-07-20T02:12:08.323Z,954.87
2018-07-20T02:13:08.316Z,954.87
2018-07-20T02:14:08.308Z,954.89
2018-07-20T02:15:08.301Z,954.83
2018-07-20T02:16:08.294Z,954.89
2018-07-20T02:17:08.286Z,954.87
2018-07-20T02:18:08.279Z,954.91
2018-07-20T02:19:08.275Z,954.87
2018-07-20T02:20:08.269Z,954.88
2018-07-20T02:21:08.257Z,954.87
2018-07-20T02:22:08.249Z,954.87
2018-07-20T02:23:08.241Z,954.87
2018-07-20T02:24:08.235Z,954.85
2018-07-20T02:25:08.234Z,954.85
2018-07-20T02:26:08.226Z,954.84
2018-07-20T02:27:08.214Z,954.83
2018-07-20T02:28:08.204Z,954.82
2018-07-20T02:29:08.200Z,954.82
2018-07-20T02:30:08.194Z,954.85
2018-07-20T02:31:08.182Z,954.84
2018-07-20T02:32:08.175Z,954.88
2018-07-20T02:33:08.168Z,954.89
2018-07-20T02:34:08.164Z,954.86
2018-07-20T02:35:08.152Z,954.92
2018-07-20T02:36:08.146Z,954.88
2018-07-20T02:37:08.138Z,954.87
2018-07-20T02:38:08.128Z,954.82
2018-07-20T02:39:08.121Z,954.88
2018-07-20T02:40:08.115Z,954.86
2018-07-20T02:41:08.107Z,954.81
2018-07-20T02:42:08.098Z,954.82
2018-07-20T02:43:08.090Z,954.81
2018-07-20T02:44:08.083Z,954.82
2018-07-20T02:45:08.074Z,954.8
2018-07-20T02:46:08.068Z,954.84
2018-07-20T02:47:08.061Z,954.82
2018-07-20T02:48:08.055Z,954.83
2018-07-20T02:49:08.045Z,954.84
2018-07-20T02:50:08.039Z,954.8
2018-07-20T02:51:08.031Z,954.81
2018-07-20T02:52:08.023Z,954.77
2018-07-20T02:53:08.026Z,954.79
2018-07-20T02:54:08.007Z,954.82
2018-07-20T02:55:08.000Z,954.82
2018-07-20T02:56:07.991Z,954.8
2018-07-20T02:57:07.986Z,954.79
2018-07-20T02:58:07.976Z,954.76
2018-07-20T02:59:07.969Z,954.77
2018-07-20T03:00:07.960Z,954.79
2018-07-20T03:01:07.955Z,954.77
2018-07-20T03:02:07.947Z,954.76
2018-07-20T03:03:07.941Z,954.73
2018-07-20T03:04:07.929Z,954.73
2018-07-20T03:05:07.927Z,954.69
2018-07-20T03:06:07.915Z,954.74
2018-07-20T03:07:07.906Z,954.76
2018-07-20T03:08:07.899Z,954.75
2018-07-20T03:09:07.946Z,954.75
2018-07-20T03:10:07.884Z,954.78
2018-07-20T03:11:07.877Z,954.79
2018-07-20T03:12:07.868Z,954.78
2018-07-20T03:13:07.862Z,954.78
2018-07-20T03:14:07.853Z,954.79
2018-07-20T03:15:07.847Z,954.8
2018-07-20T03:16:07.839Z,954.78
2018-07-20T03:17:07.829Z,954.76
2018-07-20T03:18:07.821Z,954.8
2018-07-20T03:19:07.813Z,954.81
2018-07-20T03:20:07.806Z,954.79
2018-07-20T03:21:07.836Z,954.82
2018-07-20T03:22:07.791Z,954.83
2018-07-20T03:23:07.786Z,954.81
2018-07-20T03:24:07.776Z,954.84
2018-07-20T03:25:07.768Z,954.8
2018-07-20T03:26:07.759Z,954.8
2018-07-20T03:27:07.751Z,954.81
2018-07-20T03:28:07.744Z,954.79
2018-07-20T03:29:07.736Z,954.75
2018-07-20T03:30:07.730Z,954.76
2018-07-20T03:31:07.728Z,954.73
2018-07-20T03:32:07.714Z,954.7
2018-07-20T03:33:07.706Z,954.71
2018-07-20T03:34:07.699Z,954.74
2018-07-20T03:35:07.691Z,954.71
2018-07-20T03:36:07.684Z,954.71
2018-07-20T03:37:07.676Z,954.76
2018-07-20T03:38:07.668Z,954.76
2018-07-20T03:39:07.662Z,954.7
2018-07-20T03:40:07.652Z,954.71
2018-07-20T03:41:07.644Z,954.74
2018-07-20T03:42:07.638Z,954.73
2018-07-20T03:43:07.630Z,954.74
2018-07-20T03:44:07.621Z,954.72
2018-07-20T03:45:07.615Z,954.7
2018-07-20T03:46:07.607Z,954.73
2018-07-20T03:47:07.598Z,954.73
2018-07-20T03:48:07.590Z,954.7
2018-07-20T03:49:07.641Z,954.74
2018-07-20T03:50:07.576Z,954.67
2018-07-20T03:51:07.568Z,954.68
2018-07-20T03:52:07.615Z,954.61
2018-07-20T03:53:07.560Z,954.64
2018-07-20T03:54:07.546Z,954.62
2018-07-20T03:55:07.536Z,954.61
2018-07-20T03:56:07.530Z,954.6
2018-07-20T03:57:07.523Z,954.58
2018-07-20T03:58:07.513Z,954.58
2018-07-20T03:59:07.505Z,954.61
2018-07-20T04:00:07.498Z,954.57
2018-07-20T04:01:07.492Z,954.6
2018-07-20T04:02:07.482Z,954.57
2018-07-20T04:03:07.477Z,954.53
2018-07-20T04:04:07.468Z,954.55
2018-07-20T04:05:07.461Z,954.51
2018-07-20T04:06:07.457Z,954.48
2018-07-20T04:07:07.446Z,954.49
2018-07-20T04:08:07.439Z,954.48
2018-07-20T04:09:07.431Z,954.46
2018-07-20T04:10:07.476Z,954.47
2018-07-20T04:11:07.416Z,954.45
2018-07-20T04:12:07.410Z,954.44
2018-07-20T04:13:07.401Z,954.45
2018-07-20T04:14:07.393Z,954.46
2018-07-20T04:15:07.387Z,954.46
2018-07-20T04:16:07.379Z,954.46
2018-07-20T04:17:07.374Z,954.49
2018-07-20T04:18:07.363Z,954.48
2018-07-20T04:19:07.356Z,954.5
2018-07-20T04:20:07.348Z,954.47
2018-07-20T04:21:07.341Z,954.5
2018-07-20T04:22:07.335Z,954.49
2018-07-20T04:23:07.330Z,954.45
2018-07-20T04:24:07.323Z,954.43
2018-07-20T04:25:07.312Z,954.45
2018-07-20T04:26:07.305Z,954.43
2018-07-20T04:27:07.298Z,954.43
2018-07-20T04:28:07.292Z,954.36
2018-07-20T04:29:07.284Z,954.38
2018-07-20T04:30:07.276Z,954.4
2018-07-20T04:31:07.268Z,954.39
2018-07-20T04:32:07.262Z,954.38
2018-07-20T04:33:07.255Z,954.38
2018-07-20T04:34:07.250Z,954.4
2018-07-20T04:35:07.241Z,954.4
2018-07-20T04:36:07.235Z,954.42
2018-07-20T04:37:07.230Z,954.4
2018-07-20T04:38:07.222Z,954.39
2018-07-20T04:39:07.214Z,954.37
2018-07-20T04:40:07.207Z,954.35
2018-07-20T04:41:07.200Z,954.37
2018-07-20T04:42:07.193Z,954.37
2018-07-20T04:43:07.186Z,954.35
2018-07-20T04:44:07.180Z,954.34
2018-07-20T04:45:07.172Z,954.35
2018-07-20T04:46:07.165Z,954.33
2018-07-20T04:47:07.160Z,954.33
2018-07-20T04:48:07.155Z,954.33
2018-07-20T04:49:07.147Z,954.33
2018-07-20T04:50:07.138Z,954.34
2018-07-20T04:51:07.133Z,954.34
2018-07-20T04:52:07.127Z,954.32
2018-07-20T04:53:07.118Z,954.29
2018-07-20T04:54:07.113Z,954.31
2018-07-20T04:55:07.106Z,954.33
2018-07-20T04:56:07.101Z,954.31
2018-07-20T04:57:07.092Z,954.35
2018-07-20T04:58:07.087Z,954.33
2018-07-20T04:59:07.081Z,954.32
2018-07-20T05:00:07.074Z,954.33
2018-07-20T05:01:07.069Z,954.35
2018-07-20T05:02:07.060Z,954.35
2018-07-20T05:03:07.055Z,954.36
2018-07-20T05:04:07.049Z,954.39
2018-07-20T05:05:07.043Z,954.36
2018-07-20T05:06:07.037Z,954.39
2018-07-20T05:07:07.031Z,954.37
2018-07-20T05:08:07.023Z,954.35
2018-07-20T05:09:07.018Z,954.31
2018-07-20T05:10:07.012Z,954.31
2018-07-20T05:11:07.007Z,954.28
2018-07-20T05:12:07.001Z,954.28
2018-07-20T05:13:07.001Z,954.27
2018-07-20T05:14:06.988Z,954.25
2018-07-20T05:15:06.984Z,954.22
2018-07-20T05:16:06.977Z,954.23
2018-07-20T05:17:06.972Z,954.21
2018-07-20T05:18:06.967Z,954.24
2018-07-20T05:19:06.964Z,954.21
2018-07-20T05:20:06.954Z,954.22
2018-07-20T05:21:06.950Z,954.22
2018-07-20T05:22:06.944Z,954.22
2018-07-20T05:23:06.939Z,954.2
2018-07-20T05:24:06.937Z,954.18
2018-07-20T05:25:06.928Z,954.16
2018-07-20T05:26:06.924Z,954.17
2018-07-20T05:27:06.919Z,954.15
2018-07-20T05:28:06.919Z,954.13
2018-07-20T05:29:06.908Z,954.18
2018-07-20T05:30:06.902Z,954.1
2018-07-20T05:31:06.898Z,954.14
2018-07-20T05:32:06.895Z,954.13
2018-07-20T05:33:06.887Z,954.16
2018-07-20T05:34:06.884Z,954.14
2018-07-20T05:35:06.877Z,954.17
2018-07-20T05:36:06.873Z,954.11
2018-07-20T05:37:06.869Z,954.14
2018-07-20T05:38:06.872Z,954.12
2018-07-20T05:39:06.861Z,954.11
2018-07-20T05:40:06.855Z,954.13
2018-07-20T05:41:06.850Z,954.15
2018-07-20T05:42:06.845Z,954.18
2018-07-20T05:43:06.840Z,954.15
2018-07-20T05:44:06.885Z,954.16
2018-07-20T05:45:06.833Z,954.17
2018-07-20T05:46:06.828Z,954.17
2018-07-20T05:47:06.821Z,954.19
2018-07-20T05:48:06.816Z,954.18
2018-07-20T05:49:06.811Z,954.23
2018-07-20T05:50:06.806Z,954.22
2018-07-20T05:51:06.803Z,954.19
2018-07-20T05:52:06.798Z,954.18
2018-07-20T05:53:06.793Z,954.2
2018-07-20T05:54:06.792Z,954.2
2018-07-20T05:55:06.785Z,954.19
2018-07-20T05:56:06.780Z,954.23
2018-07-20T05:57:06.776Z,954.24
2018-07-20T05:58:06.774Z,954.2
2018-07-20T05:59:06.769Z,954.21
2018-07-20T06:00:06.763Z,954.22
2018-07-20T06:01:06.759Z,954.25
2018-07-20T06:02:06.757Z,954.24
2018-07-20T06:03:06.751Z,954.23
2018-07-20T06:04:06.787Z,954.24
2018-07-20T06:05:06.744Z,954.24
2018-07-20T06:06:06.740Z,954.25
2018-07-20T06:07:06.738Z,954.25
2018-07-20T06:08:06.732Z,954.26
2018-07-20T06:09:06.728Z,954.25
2018-07-20T06:10:06.724Z,954.25
2018-07-20T06:11:06.721Z,954.22
2018-07-20T06:12:06.718Z,954.21
2018-07-20T06:13:06.714Z,954.24
2018-07-20T06:14:06.792Z,954.25
2018-07-20T06:15:06.706Z,954.24
2018-07-20T06:16:06.702Z,954.23
2018-07-20T06:17:06.699Z,954.2
2018-07-20T06:18:06.696Z,954.23
2018-07-20T06:19:06.768Z,954.25
2018-07-20T06:20:06.689Z,954.24
2018-07-20T06:21:06.685Z,954.24
2018-07-20T06:22:06.682Z,954.25
2018-07-20T06:23:06.679Z,954.27
2018-07-20T06:24:06.676Z,954.25
2018-07-20T06:25:06.672Z,954.19
2018-07-20T06:26:06.668Z,954.22
2018-07-20T06:27:06.665Z,954.21
2018-07-20T06:28:06.661Z,954.2
2018-07-20T06:29:06.658Z,954.23
2018-07-20T06:30:06.655Z,954.22
2018-07-20T06:31:06.651Z,954.26
2018-07-20T06:32:06.649Z,954.21
2018-07-20T06:33:06.647Z,954.24
2018-07-20T06:34:06.642Z,954.28
2018-07-20T06:35:06.641Z,954.26
2018-07-20T06:36:06.636Z,954.25
2018-07-20T06:37:06.634Z,954.23
2018-07-20T06:38:06.630Z,954.26
2018-07-20T06:39:06.631Z,954.26
2018-07-20T06:40:06.624Z,954.24
2018-07-20T06:41:06.623Z,954.22
2018-07-20T06:42:06.623Z,954.26
2018-07-20T06:43:06.616Z,954.23
2018-07-20T06:44:06.613Z,954.27
2018-07-20T06:45:06.611Z,954.3
2018-07-20T06:46:06.610Z,954.21
2018-07-20T06:47:06.608Z,954.22
2018-07-20T06:48:06.606Z,954.25
2018-07-20T06:49:06.605Z,954.25
2018-07-20T06:50:06.599Z,954.28
2018-07-20T06:51:06.598Z,954.29
2018-07-20T06:52:06.597Z,954.24
2018-07-20T06:53:06.595Z,954.27
2018-07-20T06:54:06.591Z,954.3
2018-07-20T06:55:06.593Z,954.28
2018-07-20T06:56:06.590Z,954.31
2018-07-20T06:57:06.587Z,954.33
2018-07-20T06:58:06.589Z,954.31
2018-07-20T06:59:06.588Z,954.31
2018-07-20T07:00:06.588Z,954.31
2018-07-20T07:01:06.589Z,954.33
2018-07-20T07:02:06.588Z,954.32
2018-07-20T07:03:06.588Z,954.35
2018-07-20T07:04:06.589Z,954.41
2018-07-20T07:05:06.589Z,954.39
2018-07-20T07:06:06.590Z,954.36
2018-07-20T07:07:06.591Z,954.4
2018-07-20T07:08:06.592Z,954.4
2018-07-20T07:09:06.593Z,954.41
2018-07-20T07:10:06.596Z,954.36
2018-07-20T07:11:06.600Z,954.38
2018-07-20T07:12:06.604Z,954.37
2018-07-20T07:13:06.604Z,954.39
2018-07-20T07:14:06.607Z,954.33
2018-07-20T07:15:06.635Z,954.35
2018-07-20T07:16:06.615Z,954.4
2018-07-20T07:17:06.620Z,954.38
2018-07-20T07:18:06.628Z,954.4
2018-07-20T07:19:06.627Z,954.38
2018-07-20T07:20:06.634Z,954.4
2018-07-20T07:21:06.638Z,954.4
2018-07-20T07:22:06.664Z,954.39
2018-07-20T07:23:06.650Z,954.39
2018-07-20T07:24:06.659Z,954.37
2018-07-20T07:25:06.662Z,954.34
2018-07-20T07:26:06.673Z,954.37
2018-07-20T07:27:06.674Z,954.36
2018-07-20T07:28:06.680Z,954.35
2018-07-20T07:29:06.703Z,954.33
2018-07-20T07:30:06.696Z,954.34
2018-07-20T07:31:06.701Z,954.32
2018-07-20T07:32:06.708Z,954.3
2018-07-20T07:33:06.717Z,954.28
2018-07-20T07:34:06.724Z,954.27
2018-07-20T07:35:06.730Z,954.28
2018-07-20T07:36:06.738Z,954.32
2018-07-20T07:37:06.751Z,954.34
2018-07-20T07:38:06.755Z,954.44
2018-07-20T07:39:06.762Z,954.45
2018-07-20T07:40:06.771Z,954.47
2018-07-20T07:41:06.778Z,954.46
2018-07-20T07:42:06.819Z,954.44
2018-07-20T07:43:06.797Z,954.43
2018-07-20T07:44:06.805Z,954.44
2018-07-20T07:45:06.812Z,954.46
2018-07-20T07:46:06.820Z,954.45
2018-07-20T07:47:06.830Z,954.49
2018-07-20T07:48:06.843Z,954.5
2018-07-20T07:49:06.848Z,954.52
2018-07-20T07:50:06.857Z,954.46
2018-07-20T07:51:06.867Z,954.39
2018-07-20T07:52:06.875Z,954.34
2018-07-20T07:53:06.885Z,954.26
2018-07-20T07:54:06.893Z,954.21
2018-07-20T07:55:06.903Z,954.26
2018-07-20T07:56:06.914Z,954.23
2018-07-20T07:57:06.921Z,954.23
2018-07-20T07:58:06.929Z,954.22
2018-07-20T07:59:06.939Z,954.2
2018-07-20T08:00:06.949Z,954.23
2018-07-20T08:01:06.957Z,954.24
2018-07-20T08:02:06.964Z,954.25
2018-07-20T08:03:07.027Z,954.24
2018-07-20T08:04:06.982Z,954.22
2018-07-20T08:05:06.995Z,954.2
2018-07-20T08:06:07.001Z,954.19
2018-07-20T08:07:07.008Z,954.19
2018-07-20T08:08:07.016Z,954.2
2018-07-20T08:09:07.026Z,954.16
2018-07-20T08:10:07.160Z,954.19
2018-07-20T08:11:07.041Z,954.16
2018-07-20T08:12:07.055Z,954.15
2018-07-20T08:13:07.056Z,954.17
2018-07-20T08:14:07.064Z,954.19
2018-07-20T08:15:07.073Z,954.16
2018-07-20T08:16:07.080Z,954.19
2018-07-20T08:17:07.087Z,954.23
2018-07-20T08:18:07.095Z,954.24
2018-07-20T08:19:07.102Z,954.26
2018-07-20T08:20:07.107Z,954.28
2018-07-20T08:21:07.113Z,954.25
2018-07-20T08:22:07.122Z,954.24
2018-07-20T08:23:07.127Z,954.23
2018-07-20T08:24:07.132Z,954.24
2018-07-20T08:25:07.136Z,954.22
2018-07-20T08:26:07.142Z,954.22
2018-07-20T08:27:07.148Z,954.27
2018-07-20T08:28:07.153Z,954.22
2018-07-20T08:29:07.157Z,954.24
2018-07-20T08:30:07.163Z,954.25
2018-07-20T08:31:07.170Z,954.22
2018-07-20T08:32:07.176Z,954.24
2018-07-20T08:33:07.177Z,954.24
2018-07-20T08:34:07.182Z,954.15
2018-07-20T08:35:07.186Z,954.16
2018-07-20T08:36:07.191Z,954.19
2018-07-20T08:37:07.195Z,954.18
2018-07-20T08:38:07.201Z,954.19
2018-07-20T08:39:07.204Z,954.16
2018-07-20T08:40:07.207Z,954.13
2018-07-20T08:41:07.265Z,954.13
2018-07-20T08:42:07.216Z,954.09
2018-07-20T08:43:07.219Z,954.14
2018-07-20T08:44:07.225Z,954.13
2018-07-20T08:45:07.229Z,954.14
2018-07-20T08:46:07.234Z,954.11
2018-07-20T08:47:07.235Z,954.14
2018-07-20T08:48:07.241Z,954.16
2018-07-20T08:49:07.247Z,954.14
2018-07-20T08:50:07.249Z,954.14
2018-07-20T08:51:07.252Z,954.16
2018-07-20T08:52:07.256Z,954.15
2018-07-20T08:53:07.261Z,954.12
2018-07-20T08:54:07.292Z,954.1
2018-07-20T08:55:07.266Z,954.07
2018-07-20T08:56:07.272Z,954.1
2018-07-20T08:57:07.275Z,954.11
2018-07-20T08:58:07.278Z,954.08
2018-07-20T08:59:07.376Z,954.11
2018-07-20T09:00:07.286Z,954.08
2018-07-20T09:01:07.290Z,954.06
2018-07-20T09:02:07.293Z,954.07
2018-07-20T09:03:07.298Z,954.05
2018-07-20T09:04:07.302Z,954.08
2018-07-20T09:05:07.304Z,954.06
2018-07-20T09:06:07.310Z,954.07
2018-07-20T09:07:07.320Z,954.05
2018-07-20T09:08:07.318Z,954.06
2018-07-20T09:09:07.321Z,954.07
2018-07-20T09:10:07.325Z,954.1
2018-07-20T09:11:07.329Z,954.04
2018-07-20T09:12:07.336Z,954.03
2018-07-20T09:13:07.339Z,954.03
2018-07-20T09:14:07.341Z,954.06
2018-07-20T09:15:07.347Z,954.06
2018-07-20T09:16:07.349Z,954.02
2018-07-20T09:17:07.354Z,954.03
2018-07-20T09:18:07.357Z,954.04
2018-07-20T09:19:07.361Z,954.04
2018-07-20T09:20:07.366Z,954
2018-07-20T09:21:07.370Z,954
2018-07-20T09:22:07.373Z,954.03
2018-07-20T09:23:07.378Z,953.99
2018-07-20T09:24:07.382Z,954.02
2018-07-20T09:25:07.385Z,954.03
2018-07-20T09:26:07.391Z,954.02
2018-07-20T09:27:07.392Z,954.06
2018-07-20T09:28:07.397Z,954.06
2018-07-20T09:29:07.409Z,954.09
2018-07-20T09:30:07.404Z,954.04
2018-07-20T09:31:07.408Z,954.08
2018-07-20T09:32:07.412Z,954.06
2018-07-20T09:33:07.417Z,954.05
2018-07-20T09:34:07.467Z,954.05
2018-07-20T09:35:07.429Z,954.05
2018-07-20T09:36:07.427Z,954.05
2018-07-20T09:37:07.434Z,954.04
2018-07-20T09:38:07.434Z,954.04
2018-07-20T09:39:07.438Z,954.06
2018-07-20T09:40:07.440Z,954.02
2018-07-20T09:41:07.444Z,954.06
2018-07-20T09:42:07.445Z,954.07
2018-07-20T09:43:07.450Z,954.05
2018-07-20T09:44:07.455Z,954.09
2018-07-20T09:45:07.457Z,954.08
2018-07-20T09:46:07.458Z,954.09
2018-07-20T09:47:07.460Z,954.03
2018-07-20T09:48:07.465Z,954.02
2018-07-20T09:49:07.468Z,954.05
2018-07-20T09:50:07.469Z,954.04
2018-07-20T09:51:07.473Z,954.04
2018-07-20T09:52:07.477Z,954.05
2018-07-20T09:53:07.479Z,953.95
2018-07-20T09:54:07.482Z,953.98
2018-07-20T09:55:07.485Z,953.97
2018-07-20T09:56:07.488Z,953.95
2018-07-20T09:57:07.492Z,953.96
2018-07-20T09:58:07.495Z,953.94
2018-07-20T09:59:07.499Z,953.92
2018-07-20T10:00:07.505Z,953.89
2018-07-20T10:01:07.504Z,953.86
2018-07-20T10:02:07.507Z,953.9
2018-07-20T10:03:07.515Z,953.9
2018-07-20T10:04:07.514Z,953.88
2018-07-20T10:05:07.599Z,953.9
2018-07-20T10:06:07.520Z,953.87
2018-07-20T10:07:07.522Z,953.87
2018-07-20T10:08:07.528Z,953.89
2018-07-20T10:09:07.530Z,953.86
2018-07-20T10:10:07.535Z,953.87
2018-07-20T10:11:07.537Z,953.87
2018-07-20T10:12:07.542Z,953.84
2018-07-20T10:13:07.543Z,953.86
2018-07-20T10:14:07.548Z,953.81
2018-07-20T10:15:07.551Z,953.8
2018-07-20T10:16:07.553Z,953.79
2018-07-20T10:17:07.560Z,953.75
2018-07-20T10:18:07.561Z,953.78
2018-07-20T10:19:07.614Z,953.73
2018-07-20T10:20:07.570Z,953.74
2018-07-20T10:21:07.572Z,953.72
2018-07-20T10:22:07.576Z,953.72
2018-07-20T10:23:07.579Z,953.74
2018-07-20T10:24:07.585Z,953.74
2018-07-20T10:25:07.587Z,953.73
2018-07-20T10:26:07.591Z,953.71
2018-07-20T10:28:07.601Z,953.71
2018-07-20T10:29:07.603Z,953.69
2018-07-20T10:30:07.607Z,953.69
2018-07-20T10:31:07.615Z,953.66
2018-07-20T10:32:07.614Z,953.68
2018-07-20T10:33:07.617Z,953.68
2018-07-20T10:34:07.623Z,953.67
2018-07-20T10:35:07.626Z,953.68
2018-07-20T10:36:07.630Z,953.65
2018-07-20T10:37:07.634Z,953.67
2018-07-20T10:38:07.637Z,953.67
2018-07-20T10:39:07.643Z,953.65
2018-07-20T10:40:07.645Z,953.64
2018-07-20T10:41:07.649Z,953.63
2018-07-20T10:42:07.653Z,953.59
2018-07-20T10:43:07.670Z,953.6
2018-07-20T10:44:07.662Z,953.61
2018-07-20T10:45:07.667Z,953.63
2018-07-20T10:46:07.670Z,953.59
2018-07-20T10:47:07.675Z,953.61
2018-07-20T10:48:07.684Z,953.53
2018-07-20T10:49:07.683Z,953.56
2018-07-20T10:50:07.692Z,953.54
2018-07-20T10:51:07.692Z,953.52
2018-07-20T10:52:07.741Z,953.54
2018-07-20T10:53:07.702Z,953.55
2018-07-20T10:54:07.707Z,953.52
2018-07-20T10:55:07.711Z,953.49
2018-07-20T10:56:07.716Z,953.49
2018-07-20T10:57:07.720Z,953.51
2018-07-20T10:58:07.724Z,953.52
2018-07-20T10:59:07.727Z,953.53
2018-07-20T11:00:07.733Z,953.52
2018-07-20T11:01:07.739Z,953.51
2018-07-20T11:02:07.743Z,953.5
2018-07-20T11:03:07.747Z,953.53
2018-07-20T11:04:07.756Z,953.46
2018-07-20T11:05:07.758Z,953.46
2018-07-20T11:06:07.762Z,953.46
2018-07-20T11:07:07.768Z,953.49
2018-07-20T11:08:07.772Z,953.41
2018-07-20T11:09:07.780Z,953.45
2018-07-20T11:10:07.780Z,953.48
2018-07-20T11:11:07.785Z,953.47
2018-07-20T11:12:07.791Z,953.47
2018-07-20T11:13:07.793Z,953.51
2018-07-20T11:14:07.799Z,953.5
2018-07-20T11:15:07.803Z,953.49
2018-07-20T11:16:07.808Z,953.48
2018-07-20T11:17:07.812Z,953.49
2018-07-20T11:18:07.818Z,953.5
2018-07-20T11:19:07.820Z,953.44
2018-07-20T11:20:07.826Z,953.43
2018-07-20T11:21:07.830Z,953.42
2018-07-20T11:22:07.835Z,953.43
2018-07-20T11:23:07.839Z,953.43
2018-07-20T11:24:07.845Z,953.44
2018-07-20T11:25:07.845Z,953.46
2018-07-20T11:26:07.852Z,953.47
2018-07-20T11:27:07.855Z,953.47
2018-07-20T11:28:07.957Z,953.47
2018-07-20T11:29:07.862Z,953.42
2018-07-20T11:30:07.868Z,953.41
2018-07-20T11:31:07.872Z,953.43
2018-07-20T11:32:07.879Z,953.42
2018-07-20T11:33:07.880Z,953.41
2018-07-20T11:34:07.883Z,953.4
2018-07-20T11:35:07.887Z,953.44
2018-07-20T11:36:07.890Z,953.36
2018-07-20T11:37:07.896Z,953.31
2018-07-20T11:38:07.899Z,953.32
2018-07-20T11:39:07.903Z,953.32
2018-07-20T11:40:07.911Z,953.3
2018-07-20T11:41:07.910Z,953.26
2018-07-20T11:42:07.916Z,953.32
2018-07-20T11:43:07.922Z,953.31
2018-07-20T11:44:07.922Z,953.3
2018-07-20T11:45:07.929Z,953.28
2018-07-20T11:46:07.929Z,953.28
2018-07-20T11:47:07.935Z,953.28
2018-07-20T11:48:07.939Z,953.22
2018-07-20T11:49:07.942Z,953.21
2018-07-20T11:50:07.948Z,953.2
2018-07-20T11:51:07.949Z,953.19
2018-07-20T11:52:07.957Z,953.15
2018-07-20T11:53:07.958Z,953.14
2018-07-20T11:54:07.963Z,953.14
2018-07-20T11:55:07.965Z,953.11
2018-07-20T11:56:07.973Z,953.12
2018-07-20T11:57:07.973Z,953.1
2018-07-20T11:58:07.982Z,953.11
2018-07-20T11:59:07.982Z,953.05
2018-07-20T12:00:07.987Z,953.04
2018-07-20T12:01:07.990Z,953.03
2018-07-20T12:02:07.994Z,953.03
2018-07-20T12:03:08.001Z,953.03
2018-07-20T12:04:08.004Z,952.99
2018-07-20T12:05:08.007Z,953.02
2018-07-20T12:06:08.012Z,953.04
2018-07-20T12:07:08.016Z,953.02
2018-07-20T12:08:08.020Z,952.99
2018-07-20T12:09:08.023Z,953.02
2018-07-20T12:10:08.028Z,953
2018-07-20T12:11:08.034Z,953.02
2018-07-20T12:12:08.037Z,953.02
2018-07-20T12:13:08.041Z,952.98
2018-07-20T12:14:08.045Z,952.96
2018-07-20T12:15:08.049Z,952.94
2018-07-20T12:16:08.053Z,952.96
2018-07-20T12:17:08.062Z,952.94
2018-07-20T12:18:08.064Z,952.89
2018-07-20T12:19:08.067Z,952.88
2018-07-20T12:20:08.073Z,952.88
2018-07-20T12:21:08.080Z,952.89
2018-07-20T12:22:08.086Z,952.86
2018-07-20T12:23:08.085Z,952.82
2018-07-20T12:24:08.091Z,952.84
2018-07-20T12:25:08.095Z,952.82
2018-07-20T12:26:08.101Z,952.84
2018-07-20T12:27:08.104Z,952.83
2018-07-20T12:28:08.134Z,952.81
2018-07-20T12:29:08.119Z,952.79
2018-07-20T12:30:08.120Z,952.8
2018-07-20T12:31:08.123Z,952.8
2018-07-20T12:32:08.129Z,952.8